Airfield :
LOGIN :

Register | Disclaimer

   EN    FR    IT 

 










Legend :    VFR   Marginal VFR   IFR   Intensive IFR   Very Intensive IFR
Visi :
Ceiling :
>= 8 km
>= 3000ft
5 to 8 km
1000 to 3000 ft
1500m to 5 km
500 to 1000 ft
800 to 1500m
200 to 500 ft
< 800m
< 200 ft
Symbols :   Thunderstorms  Fog  Heavy snow  Heavy precipitations  Wind > 20 kt
SIGMETs :     Misc.  Thunderstorms  Icing  Turbulence  Mountain Waves  Volcanic Ashes






- Airport Elevation : 273 ft


EGXT - RAF Wittering Stamford

CURRENT METAR :
  • 190520Z AUTO 22004KT 9999 FEW100/// 17/14 Q1017

EXPIRED METARs :
  • 190450Z AUTO 21005KT 9999 NCD 15/14 Q1017
  • 190420Z AUTO 20005KT 9999 NCD 15/13 Q1017
  • 190350Z AUTO 18004KT 9999 NCD 15/13 Q1018
  • 190320Z AUTO 18004KT 9999 NCD 15/13 Q1018
  • 190250Z AUTO 16003KT 9999 NCD 15/13 Q1018
  • 190220Z AUTO 14003KT 9999 FEW110/// 16/14 Q1018
  • 190150Z AUTO 14002KT 9999 BKN110/// 17/14 Q1018
  • 190120Z AUTO 13003KT 9999 BKN110/// 17/14 Q1018
  • 190050Z AUTO 14002KT 9999 FEW110/// 17/15 Q1018

Expired Forecast.



MET'MAP, your aeronautical weather chart ! - Copyright ORBIFLY December 2007 - Disclaimer

ORBIFLY MET'MAP TEAM :

Programming & Development : Alexandra Zaïnal
Original concept : Baudouin d'Aumeries
Technical & hardware support : Manuel Goepfert
Assistance : Marc-Olivier Méhu




SOURCES & CREDITS :

   NOAA